Michalis L — A8TZ8 — position and weather

sailwx.info

Track history (hours):
 
Tides and Currents Weather Stations Pressure Air Temp Water Temp Dewpoint Dewpoint Depression Visibility Wind Speed Wind Dir Waves Ship Positions

Michalis L

Last reported at 2014-Nov-26 00:05 UTC. Time now 2014-Nov-28 11:01 UTC.
Position N 35°58' W 005°36'.

Length 230 m; draft 9.5 m.

Type: Cargo ship. MMSI: 636014462.

Date/timePositionNaut miles runAvg speedWind from/ knotsBaromVisibWave heightAir tempDewpointWater temp
2014-Nov-26 00:05N 35°58' W 005°36'711.9
2014-Nov-25 23:31N 35°59' W 005°28'9 9.8
2014-Nov-25 22:33N 36°08' W 005°23'1 0.3
2014-Nov-25 20:17N 36°09' W 005°23'0 0.1
2014-Nov-25 19:32N 36°09' W 005°22'0 0.1
2014-Nov-25 18:32N 36°09' W 005°22'0 0.0
2014-Nov-25 17:26N 36°09' W 005°23'0 0.0
2014-Nov-25 16:29N 36°09' W 005°23'0 0.1
2014-Nov-25 15:29N 36°09' W 005°22'0 0.1
2014-Nov-25 14:29N 36°09' W 005°22'0 0.0
2014-Nov-25 13:32N 36°09' W 005°22'0 0.1
2014-Nov-25 12:20N 36°09' W 005°22'0 0.1
2014-Nov-25 11:29N 36°09' W 005°22'0 0.3
2014-Nov-25 10:14N 36°08' W 005°23'4 5.9
2014-Nov-25 09:33N 36°05' W 005°21'9 8.3
2014-Nov-25 08:31N 36°02' W 005°10'  
2014-Nov-23 03:18N 37°38' E 008°03'1013.1
2014-Nov-23 02:33N 37°39' E 008°15'1313.0
2014-Nov-23 01:33N 37°41' E 008°31'1212.1
2014-Nov-23 00:33N 37°42' E 008°47'1211.7
2014-Nov-22 23:33N 37°43' E 009°01'1212.0
2014-Nov-22 22:31N 37°42' E 009°17'1212.1
2014-Nov-22 21:33N 37°41' E 009°32'1212.0
2014-Nov-22 20:33N 37°40' E 009°47'1212.0
2014-Nov-22 19:33N 37°39' E 010°02'1712.0
2014-Nov-22 18:06N 37°38' E 010°24'912.2
2014-Nov-22 17:22N 37°36' E 010°35'8612.6
2014-Nov-22 10:29N 37°00' E 012°14'1314.0
2014-Nov-22 09:33N 36°54' E 012°28'1414.1
2014-Nov-22 08:33N 36°47' E 012°43'1514.1
2014-Nov-22 07:29N 36°40' E 013°00'3313.9
2014-Nov-22 05:09N 36°34' E 013°40'814.2
2014-Nov-22 04:34N 36°32' E 013°50'1414.0
2014-Nov-22 03:33N 36°30' E 014°07'1414.1
2014-Nov-22 02:33N 36°26' E 014°25'1414.0
2014-Nov-22 01:33N 36°24' E 014°41'1413.6
2014-Nov-22 00:33N 36°21' E 014°58'1513.7
2014-Nov-21 23:27N 36°21' E 015°17'  
2014-Nov-18 17:32N 36°29' E 023°00'48 7.7
2014-Nov-18 11:21N 35°46' E 023°25'6 8.2
2014-Nov-18 10:33N 35°40' E 023°23'120 7.5
2014-Nov-17 18:27N 34°16' E 025°08'  
Track history (hours):
 
Tides and Currents Weather Stations Pressure Air Temp Water Temp Dewpoint Dewpoint Depression Visibility Wind Speed Wind Dir Waves Ship Positions

Michalis L

Last reported at 2014-Nov-26 00:05 UTC. Time now 2014-Nov-28 11:01 UTC.
Position N 35°58' W 005°36'.

Length 230 m; draft 9.5 m.

Type: Cargo ship. MMSI: 636014462.

Date/timePositionNaut miles runAvg speedWind from/ knotsBaromVisibWave heightAir tempDewpointWater temp
2014-Nov-26 00:05N 35°58' W 005°36'711.9
2014-Nov-25 23:31N 35°59' W 005°28'9 9.8
2014-Nov-25 22:33N 36°08' W 005°23'1 0.3
2014-Nov-25 20:17N 36°09' W 005°23'0 0.1
2014-Nov-25 19:32N 36°09' W 005°22'0 0.1
2014-Nov-25 18:32N 36°09' W 005°22'0 0.0
2014-Nov-25 17:26N 36°09' W 005°23'0 0.0
2014-Nov-25 16:29N 36°09' W 005°23'0 0.1
2014-Nov-25 15:29N 36°09' W 005°22'0 0.1
2014-Nov-25 14:29N 36°09' W 005°22'0 0.0
2014-Nov-25 13:32N 36°09' W 005°22'0 0.1
2014-Nov-25 12:20N 36°09' W 005°22'0 0.1
2014-Nov-25 11:29N 36°09' W 005°22'0 0.3
2014-Nov-25 10:14N 36°08' W 005°23'4 5.9
2014-Nov-25 09:33N 36°05' W 005°21'9 8.3
2014-Nov-25 08:31N 36°02' W 005°10'  
2014-Nov-23 03:18N 37°38' E 008°03'1013.1
2014-Nov-23 02:33N 37°39' E 008°15'1313.0
2014-Nov-23 01:33N 37°41' E 008°31'1212.1
2014-Nov-23 00:33N 37°42' E 008°47'1211.7
2014-Nov-22 23:33N 37°43' E 009°01'1212.0
2014-Nov-22 22:31N 37°42' E 009°17'1212.1
2014-Nov-22 21:33N 37°41' E 009°32'1212.0
2014-Nov-22 20:33N 37°40' E 009°47'1212.0
2014-Nov-22 19:33N 37°39' E 010°02'1712.0
2014-Nov-22 18:06N 37°38' E 010°24'912.2
2014-Nov-22 17:22N 37°36' E 010°35'8612.6
2014-Nov-22 10:29N 37°00' E 012°14'1314.0
2014-Nov-22 09:33N 36°54' E 012°28'1414.1
2014-Nov-22 08:33N 36°47' E 012°43'1514.1
2014-Nov-22 07:29N 36°40' E 013°00'3313.9
2014-Nov-22 05:09N 36°34' E 013°40'814.2
2014-Nov-22 04:34N 36°32' E 013°50'1414.0
2014-Nov-22 03:33N 36°30' E 014°07'1414.1
2014-Nov-22 02:33N 36°26' E 014°25'1414.0
2014-Nov-22 01:33N 36°24' E 014°41'1413.6
2014-Nov-22 00:33N 36°21' E 014°58'1513.7
2014-Nov-21 23:27N 36°21' E 015°17'  
2014-Nov-18 17:32N 36°29' E 023°00'48 7.7
2014-Nov-18 11:21N 35°46' E 023°25'6 8.2
2014-Nov-18 10:33N 35°40' E 023°23'120 7.5
2014-Nov-17 18:27N 34°16' E 025°08'  

Dump ship's entire track history